Terminal Aerodrome Forecast
Issued by NWS

Home | Current Version | Previous Version | Text Only | Print | Product List | Glossary Off
Versions: 1 2 3 4 5 6 7 8 9 10 11 12 13 14 15 16 17 18

279
FTUS43 KOAX 222213 AAB
TAFCDR
TAF AMD
KCDR 222213Z 2222/2318 16018G25KT P6SM VCTS BKN080CB BKN120
      TEMPO 2222/2224 24025G40KT 3SM TSRA BKN040CB
     FM230400 20012KT P6SM BKN150
     FM230900 26007KT P6SM SCT150=

USA.gov is the U.S. government's official web portal to all federal, state and local government web resources and services.